Sparta, WI

9:10 AM CDT on May 29, 2015 (GMT -0500)
Sparta-Fort McCoy | | Change Station
CLOSE
Current Station
Airport
Location: Sparta,
Elevation: 837 ft
Nearby Weather Stations

Elev 837 ft 43.96 °N, 90.74 °W | Updated 15 minutes ago

Mostly Cloudy
Mostly Cloudy
68 °F
Feels Like 68 °F
N
8
Wind Variable Wind from South

Today
High -- | Low -- °F
--% Chance of Precip.
Yesterday
High -- | Low -- °F
Precip. -- in
5:25 AM 8:36 PM
Waxing Gibbous, 84% visible
Pressure 29.96 in
Visibility 10.0 miles
Clouds Scattered Clouds 1900 ft
Scattered Clouds 2500 ft
Mostly Cloudy 9000 ft
Dew Point 60 °F
Humidity 76%
Rainfall 0.09 in
Snow Depth Not available.
UV 2 out of 12
Pollen .80 out of 12
Air Quality Not available.
Flu Activity Sporadic
METAR KCMY 291355Z AUTO 19007KT 160V220 10SM SCT019 SCT025 BKN090 20/16 A2996 RMK AO2 T02010157

More Conditions Fewer Conditions

Pressure 29.96 in
Visibility 10.0 miles
Clouds Scattered Clouds 1900 ft
Scattered Clouds 2500 ft
Mostly Cloudy 9000 ft
Dew Point 60 °F
Humidity 76%
Rainfall 0.09 in
Snow Depth Not available.
UV 2 out of 12
Pollen .80 out of 12
Air Quality Not available.
Flu Activity Sporadic
METAR KCMY 291355Z AUTO 19007KT 160V220 10SM SCT019 SCT025 BKN090 20/16 A2996 RMK AO2 T02010157

More Conditions Fewer Conditions

10-Day Weather Forecast

Almanac

Astronomy

May. 29, 2015 Rise Set
Actual Time
Civil Twilight
Nautical Twilight
Astronomical Twilight
Moon
Length of Visible Light
Length of Day
Tomorrow will be .
, % of the Moon is Illuminated

Today's Extremes

State Highs State Lows

Community

WunderPhotos

Upload Photos

1,825,275 photos uploaded!

WunderBlogs® & News

Nearby

Air Quality

  Air Quality AQ Index Pollutant
Not available.

Snow Depth

Station Depth Elevation

Earthquake Activity

City Distance Mag. Time & Date
Minimum magnitude displayed is 2.5.

Coastal Water Temperatures

Place Temperature

Stations

Nearby Weather Stations

Station Location Temp. Windchill Dew Point Humidity Wind Precip. Elev Updated Type